sensor_id;sensor_type;location;lat;lon;timestamp;P1;durP1;ratioP1;P2;durP2;ratioP2
28509;SDS011;15723;55.684;37.928;2023-01-04T00:00:16;1.00;;;0.60;;
28509;SDS011;15723;55.684;37.928;2023-01-04T00:02:43;0.73;;;0.60;;
28509;SDS011;15723;55.684;37.928;2023-01-04T00:05:27;1.35;;;0.70;;
28509;SDS011;15723;55.684;37.928;2023-01-04T00:07:53;0.85;;;0.70;;
28509;SDS011;15723;55.684;37.928;2023-01-04T00:10:19;0.98;;;0.70;;
28509;SDS011;15723;55.684;37.928;2023-01-04T00:12:46;1.13;;;0.77;;
28509;SDS011;15723;55.684;37.928;2023-01-04T00:15:12;0.90;;;0.80;;
28509;SDS011;15723;55.684;37.928;2023-01-04T00:17:38;0.60;;;0.60;;
28509;SDS011;15723;55.684;37.928;2023-01-04T00:20:04;1.25;;;0.80;;
28509;SDS011;15723;55.684;37.928;2023-01-04T00:22:34;1.38;;;0.88;;
28509;SDS011;15723;55.684;37.928;2023-01-04T00:25:00;0.80;;;0.60;;
28509;SDS011;15723;55.684;37.928;2023-01-04T00:27:28;0.60;;;0.60;;
28509;SDS011;15723;55.684;37.928;2023-01-04T00:29:55;1.17;;;0.85;;
28509;SDS011;15723;55.684;37.928;2023-01-04T00:32:21;1.15;;;0.68;;
28509;SDS011;15723;55.684;37.928;2023-01-04T00:34:47;0.73;;;0.70;;
28509;SDS011;15723;55.684;37.928;2023-01-04T00:37:13;0.77;;;0.73;;
28509;SDS011;15723;55.684;37.928;2023-01-04T00:39:40;0.70;;;0.60;;
28509;SDS011;15723;55.684;37.928;2023-01-04T00:42:06;1.48;;;0.68;;
28509;SDS011;15723;55.684;37.928;2023-01-04T00:44:33;0.95;;;0.70;;
28509;SDS011;15723;55.684;37.928;2023-01-04T00:47:00;1.30;;;0.70;;
28509;SDS011;15723;55.684;37.928;2023-01-04T00:49:29;0.50;;;0.50;;
28509;SDS011;15723;55.684;37.928;2023-01-04T00:52:14;0.95;;;0.60;;
28509;SDS011;15723;55.684;37.928;2023-01-04T00:54:40;0.80;;;0.75;;
28509;SDS011;15723;55.684;37.928;2023-01-04T00:57:06;1.20;;;1.10;;
28509;SDS011;15723;55.684;37.928;2023-01-04T00:59:33;2.00;;;1.40;;
28509;SDS011;15723;55.684;37.928;2023-01-04T01:01:59;2.40;;;1.50;;
28509;SDS011;15723;55.684;37.928;2023-01-04T01:04:26;2.75;;;1.85;;
28509;SDS011;15723;55.684;37.928;2023-01-04T01:06:52;8.75;;;2.50;;
28509;SDS011;15723;55.684;37.928;2023-01-04T01:09:19;5.43;;;2.40;;
28509;SDS011;15723;55.684;37.928;2023-01-04T01:11:49;3.38;;;2.53;;
28509;SDS011;15723;55.684;37.928;2023-01-04T01:14:18;3.92;;;2.60;;
28509;SDS011;15723;55.684;37.928;2023-01-04T01:16:47;4.50;;;2.75;;
28509;SDS011;15723;55.684;37.928;2023-01-04T01:19:14;6.25;;;2.38;;
28509;SDS011;15723;55.684;37.928;2023-01-04T01:21:40;4.70;;;2.88;;
28509;SDS011;15723;55.684;37.928;2023-01-04T01:24:08;5.30;;;2.85;;
28509;SDS011;15723;55.684;37.928;2023-01-04T01:26:58;4.10;;;2.65;;
28509;SDS011;15723;55.684;37.928;2023-01-04T01:29:24;4.20;;;2.80;;
28509;SDS011;15723;55.684;37.928;2023-01-04T01:31:50;5.00;;;2.80;;
28509;SDS011;15723;55.684;37.928;2023-01-04T01:34:17;3.53;;;2.30;;
28509;SDS011;15723;55.684;37.928;2023-01-04T01:36:43;5.60;;;3.35;;
28509;SDS011;15723;55.684;37.928;2023-01-04T01:39:09;5.90;;;3.10;;
28509;SDS011;15723;55.684;37.928;2023-01-04T01:41:35;5.00;;;3.17;;
28509;SDS011;15723;55.684;37.928;2023-01-04T01:47:06;3.53;;;2.65;;
28509;SDS011;15723;55.684;37.928;2023-01-04T01:49:40;5.03;;;2.78;;
28509;SDS011;15723;55.684;37.928;2023-01-04T01:52:10;4.13;;;2.65;;
28509;SDS011;15723;55.684;37.928;2023-01-04T01:54:46;6.32;;;3.33;;
28509;SDS011;15723;55.684;37.928;2023-01-04T01:57:18;5.30;;;3.22;;
28509;SDS011;15723;55.684;37.928;2023-01-04T01:59:49;3.28;;;2.70;;
28509;SDS011;15723;55.684;37.928;2023-01-04T02:02:18;4.80;;;2.50;;
28509;SDS011;15723;55.684;37.928;2023-01-04T02:04:46;4.50;;;2.60;;
28509;SDS011;15723;55.684;37.928;2023-01-04T02:07:16;3.78;;;2.70;;
28509;SDS011;15723;55.684;37.928;2023-01-04T02:09:45;6.65;;;2.60;;
28509;SDS011;15723;55.684;37.928;2023-01-04T02:12:12;5.28;;;2.65;;
28509;SDS011;15723;55.684;37.928;2023-01-04T02:14:42;3.78;;;2.50;;
28509;SDS011;15723;55.684;37.928;2023-01-04T02:20:02;5.40;;;2.42;;
28509;SDS011;15723;55.684;37.928;2023-01-04T02:33:46;5.20;;;2.38;;
28509;SDS011;15723;55.684;37.928;2023-01-04T02:39:04;7.40;;;3.60;;
28509;SDS011;15723;55.684;37.928;2023-01-04T02:41:41;4.72;;;3.00;;
28509;SDS011;15723;55.684;37.928;2023-01-04T02:50:24;7.43;;;3.22;;
28509;SDS011;15723;55.684;37.928;2023-01-04T02:58:53;3.80;;;2.17;;
28509;SDS011;15723;55.684;37.928;2023-01-04T03:13:39;6.13;;;4.28;;
28509;SDS011;15723;55.684;37.928;2023-01-04T03:16:12;9.15;;;4.97;;
28509;SDS011;15723;55.684;37.928;2023-01-04T03:19:02;6.05;;;3.33;;
28509;SDS011;15723;55.684;37.928;2023-01-04T03:21:34;6.72;;;3.97;;
28509;SDS011;15723;55.684;37.928;2023-01-04T03:24:02;9.07;;;4.65;;
28509;SDS011;15723;55.684;37.928;2023-01-04T03:26:51;7.63;;;4.00;;
28509;SDS011;15723;55.684;37.928;2023-01-04T03:29:42;6.35;;;4.32;;
28509;SDS011;15723;55.684;37.928;2023-01-04T03:35:20;8.98;;;4.75;;
28509;SDS011;15723;55.684;37.928;2023-01-04T03:38:05;7.05;;;4.90;;
28509;SDS011;15723;55.684;37.928;2023-01-04T03:43:51;10.70;;;4.90;;
28509;SDS011;15723;55.684;37.928;2023-01-04T03:46:58;8.15;;;5.60;;
28509;SDS011;15723;55.684;37.928;2023-01-04T03:52:28;8.10;;;5.60;;
28509;SDS011;15723;55.684;37.928;2023-01-04T03:54:56;9.77;;;4.88;;
28509;SDS011;15723;55.684;37.928;2023-01-04T03:57:25;6.03;;;3.72;;
28509;SDS011;15723;55.684;37.928;2023-01-04T03:59:56;5.65;;;3.90;;
28509;SDS011;15723;55.684;37.928;2023-01-04T04:02:30;5.60;;;4.20;;
28509;SDS011;15723;55.684;37.928;2023-01-04T04:05:01;7.15;;;4.60;;
28509;SDS011;15723;55.684;37.928;2023-01-04T04:07:46;4.03;;;3.22;;
28509;SDS011;15723;55.684;37.928;2023-01-04T04:10:31;4.95;;;3.58;;
28509;SDS011;15723;55.684;37.928;2023-01-04T04:12:57;3.50;;;2.40;;
28509;SDS011;15723;55.684;37.928;2023-01-04T04:15:24;4.65;;;3.53;;
28509;SDS011;15723;55.684;37.928;2023-01-04T04:17:50;7.65;;;3.30;;
28509;SDS011;15723;55.684;37.928;2023-01-04T04:20:16;4.65;;;3.38;;
28509;SDS011;15723;55.684;37.928;2023-01-04T04:22:42;6.55;;;3.50;;
28509;SDS011;15723;55.684;37.928;2023-01-04T04:25:08;6.53;;;3.20;;
28509;SDS011;15723;55.684;37.928;2023-01-04T04:27:35;5.60;;;2.83;;
28509;SDS011;15723;55.684;37.928;2023-01-04T04:30:04;4.35;;;1.88;;
28509;SDS011;15723;55.684;37.928;2023-01-04T04:32:31;4.57;;;2.78;;
28509;SDS011;15723;55.684;37.928;2023-01-04T04:34:57;3.80;;;2.58;;
28509;SDS011;15723;55.684;37.928;2023-01-04T04:37:23;3.17;;;2.75;;
28509;SDS011;15723;55.684;37.928;2023-01-04T04:39:51;3.92;;;2.50;;
28509;SDS011;15723;55.684;37.928;2023-01-04T04:42:17;5.15;;;3.30;;
28509;SDS011;15723;55.684;37.928;2023-01-04T04:44:44;4.35;;;2.67;;
28509;SDS011;15723;55.684;37.928;2023-01-04T04:47:10;3.85;;;2.75;;
28509;SDS011;15723;55.684;37.928;2023-01-04T04:49:36;4.63;;;2.40;;
28509;SDS011;15723;55.684;37.928;2023-01-04T04:52:02;4.10;;;2.67;;
28509;SDS011;15723;55.684;37.928;2023-01-04T04:54:28;4.38;;;2.72;;
28509;SDS011;15723;55.684;37.928;2023-01-04T04:56:55;4.75;;;3.40;;
28509;SDS011;15723;55.684;37.928;2023-01-04T04:59:21;4.10;;;2.80;;
28509;SDS011;15723;55.684;37.928;2023-01-04T05:01:47;3.92;;;2.22;;
28509;SDS011;15723;55.684;37.928;2023-01-04T05:04:14;4.18;;;2.55;;
28509;SDS011;15723;55.684;37.928;2023-01-04T05:06:41;3.75;;;2.30;;
28509;SDS011;15723;55.684;37.928;2023-01-04T05:09:27;2.90;;;2.10;;
28509;SDS011;15723;55.684;37.928;2023-01-04T05:11:53;4.68;;;2.78;;
28509;SDS011;15723;55.684;37.928;2023-01-04T05:14:38;3.55;;;2.30;;
28509;SDS011;15723;55.684;37.928;2023-01-04T05:17:04;3.15;;;1.83;;
28509;SDS011;15723;55.684;37.928;2023-01-04T05:19:30;5.18;;;2.20;;
28509;SDS011;15723;55.684;37.928;2023-01-04T05:21:56;4.20;;;2.53;;
28509;SDS011;15723;55.684;37.928;2023-01-04T05:24:22;5.38;;;2.45;;
28509;SDS011;15723;55.684;37.928;2023-01-04T05:26:48;5.13;;;3.05;;
28509;SDS011;15723;55.684;37.928;2023-01-04T05:29:15;3.35;;;2.97;;
28509;SDS011;15723;55.684;37.928;2023-01-04T05:31:59;5.55;;;2.78;;
28509;SDS011;15723;55.684;37.928;2023-01-04T05:34:26;4.32;;;2.70;;
28509;SDS011;15723;55.684;37.928;2023-01-04T05:36:52;5.43;;;2.10;;
28509;SDS011;15723;55.684;37.928;2023-01-04T05:39:18;4.50;;;2.05;;
28509;SDS011;15723;55.684;37.928;2023-01-04T05:41:44;3.80;;;2.00;;
28509;SDS011;15723;55.684;37.928;2023-01-04T05:44:29;2.97;;;2.10;;
28509;SDS011;15723;55.684;37.928;2023-01-04T05:46:55;4.32;;;2.45;;
28509;SDS011;15723;55.684;37.928;2023-01-04T05:49:21;5.00;;;2.00;;
28509;SDS011;15723;55.684;37.928;2023-01-04T05:52:06;3.08;;;1.92;;
28509;SDS011;15723;55.684;37.928;2023-01-04T05:54:32;4.00;;;1.75;;
28509;SDS011;15723;55.684;37.928;2023-01-04T05:56:58;4.75;;;2.30;;
28509;SDS011;15723;55.684;37.928;2023-01-04T05:59:24;3.50;;;2.42;;
28509;SDS011;15723;55.684;37.928;2023-01-04T06:01:51;2.13;;;1.70;;
28509;SDS011;15723;55.684;37.928;2023-01-04T06:04:17;3.53;;;2.10;;
28509;SDS011;15723;55.684;37.928;2023-01-04T06:06:45;3.95;;;2.33;;
28509;SDS011;15723;55.684;37.928;2023-01-04T06:09:11;4.85;;;2.50;;
28509;SDS011;15723;55.684;37.928;2023-01-04T06:11:37;4.55;;;1.98;;
28509;SDS011;15723;55.684;37.928;2023-01-04T06:14:22;4.55;;;2.45;;
28509;SDS011;15723;55.684;37.928;2023-01-04T06:16:48;4.95;;;2.10;;
28509;SDS011;15723;55.684;37.928;2023-01-04T06:19:14;2.85;;;1.92;;
28509;SDS011;15723;55.684;37.928;2023-01-04T06:21:41;5.82;;;2.45;;
28509;SDS011;15723;55.684;37.928;2023-01-04T06:24:25;2.28;;;1.83;;
28509;SDS011;15723;55.684;37.928;2023-01-04T06:26:52;4.80;;;2.58;;
28509;SDS011;15723;55.684;37.928;2023-01-04T06:29:18;2.75;;;1.88;;
28509;SDS011;15723;55.684;37.928;2023-01-04T06:31:44;3.28;;;1.77;;
28509;SDS011;15723;55.684;37.928;2023-01-04T06:34:11;2.63;;;1.80;;
28509;SDS011;15723;55.684;37.928;2023-01-04T06:36:38;3.30;;;1.92;;
28509;SDS011;15723;55.684;37.928;2023-01-04T06:39:05;3.42;;;1.60;;
28509;SDS011;15723;55.684;37.928;2023-01-04T06:41:32;3.72;;;1.80;;
28509;SDS011;15723;55.684;37.928;2023-01-04T06:43:59;4.10;;;1.55;;
28509;SDS011;15723;55.684;37.928;2023-01-04T06:46:25;4.10;;;1.80;;
28509;SDS011;15723;55.684;37.928;2023-01-04T06:48:52;4.07;;;1.70;;
28509;SDS011;15723;55.684;37.928;2023-01-04T06:51:19;3.20;;;1.92;;
28509;SDS011;15723;55.684;37.928;2023-01-04T06:53:45;3.78;;;1.83;;
28509;SDS011;15723;55.684;37.928;2023-01-04T06:56:30;3.70;;;1.52;;
28509;SDS011;15723;55.684;37.928;2023-01-04T06:58:58;2.97;;;2.20;;
28509;SDS011;15723;55.684;37.928;2023-01-04T07:01:24;3.38;;;2.08;;
28509;SDS011;15723;55.684;37.928;2023-01-04T07:03:51;2.33;;;1.70;;
28509;SDS011;15723;55.684;37.928;2023-01-04T07:06:17;2.85;;;1.73;;
28509;SDS011;15723;55.684;37.928;2023-01-04T07:08:43;4.15;;;2.60;;
28509;SDS011;15723;55.684;37.928;2023-01-04T07:11:10;3.22;;;2.00;;
28509;SDS011;15723;55.684;37.928;2023-01-04T07:13:36;4.13;;;2.28;;
28509;SDS011;15723;55.684;37.928;2023-01-04T07:16:02;5.80;;;2.50;;
28509;SDS011;15723;55.684;37.928;2023-01-04T07:18:28;3.60;;;2.00;;
28509;SDS011;15723;55.684;37.928;2023-01-04T07:21:13;4.35;;;2.03;;
28509;SDS011;15723;55.684;37.928;2023-01-04T07:23:39;7.15;;;3.00;;
28509;SDS011;15723;55.684;37.928;2023-01-04T07:26:24;3.63;;;2.30;;
28509;SDS011;15723;55.684;37.928;2023-01-04T07:28:50;2.72;;;1.88;;
28509;SDS011;15723;55.684;37.928;2023-01-04T07:31:35;3.15;;;1.98;;
28509;SDS011;15723;55.684;37.928;2023-01-04T07:34:01;3.53;;;2.30;;
28509;SDS011;15723;55.684;37.928;2023-01-04T07:36:27;3.30;;;1.92;;
28509;SDS011;15723;55.684;37.928;2023-01-04T07:38:53;3.30;;;2.08;;
28509;SDS011;15723;55.684;37.928;2023-01-04T07:41:20;12.05;;;2.53;;
28509;SDS011;15723;55.684;37.928;2023-01-04T07:43:46;2.78;;;1.63;;
28509;SDS011;15723;55.684;37.928;2023-01-04T07:46:12;2.80;;;1.90;;
28509;SDS011;15723;55.684;37.928;2023-01-04T07:48:38;6.03;;;1.58;;
28509;SDS011;15723;55.684;37.928;2023-01-04T07:51:16;3.45;;;2.35;;
28509;SDS011;15723;55.684;37.928;2023-01-04T07:53:43;2.63;;;1.60;;
28509;SDS011;15723;55.684;37.928;2023-01-04T07:56:09;3.78;;;1.48;;
28509;SDS011;15723;55.684;37.928;2023-01-04T07:58:35;2.13;;;1.30;;
28509;SDS011;15723;55.684;37.928;2023-01-04T08:01:20;4.32;;;1.67;;
28509;SDS011;15723;55.684;37.928;2023-01-04T08:03:47;2.10;;;1.48;;
28509;SDS011;15723;55.684;37.928;2023-01-04T08:06:14;3.10;;;1.95;;
28509;SDS011;15723;55.684;37.928;2023-01-04T08:09:01;3.85;;;2.20;;
28509;SDS011;15723;55.684;37.928;2023-01-04T08:11:28;3.05;;;1.90;;
28509;SDS011;15723;55.684;37.928;2023-01-04T08:13:54;5.00;;;2.25;;
28509;SDS011;15723;55.684;37.928;2023-01-04T08:16:40;2.53;;;1.40;;
28509;SDS011;15723;55.684;37.928;2023-01-04T08:19:12;2.83;;;1.65;;
28509;SDS011;15723;55.684;37.928;2023-01-04T08:21:40;3.58;;;2.00;;
28509;SDS011;15723;55.684;37.928;2023-01-04T08:24:08;2.63;;;1.95;;
28509;SDS011;15723;55.684;37.928;2023-01-04T08:26:40;3.78;;;1.98;;
28509;SDS011;15723;55.684;37.928;2023-01-04T08:29:06;2.97;;;2.30;;
28509;SDS011;15723;55.684;37.928;2023-01-04T08:31:33;3.05;;;2.13;;
28509;SDS011;15723;55.684;37.928;2023-01-04T08:34:00;2.90;;;1.90;;
28509;SDS011;15723;55.684;37.928;2023-01-04T08:36:29;4.00;;;2.10;;
28509;SDS011;15723;55.684;37.928;2023-01-04T08:38:58;4.43;;;1.80;;
28509;SDS011;15723;55.684;37.928;2023-01-04T08:41:30;3.13;;;2.00;;
28509;SDS011;15723;55.684;37.928;2023-01-04T08:43:58;3.63;;;2.20;;
28509;SDS011;15723;55.684;37.928;2023-01-04T08:46:24;3.92;;;1.90;;
28509;SDS011;15723;55.684;37.928;2023-01-04T08:48:51;4.32;;;1.95;;
28509;SDS011;15723;55.684;37.928;2023-01-04T08:51:17;3.20;;;2.35;;
28509;SDS011;15723;55.684;37.928;2023-01-04T08:53:43;5.95;;;3.38;;
28509;SDS011;15723;55.684;37.928;2023-01-04T08:56:10;6.35;;;2.22;;
28509;SDS011;15723;55.684;37.928;2023-01-04T08:58:36;6.43;;;2.92;;
28509;SDS011;15723;55.684;37.928;2023-01-04T09:01:04;5.15;;;2.60;;
28509;SDS011;15723;55.684;37.928;2023-01-04T09:03:32;4.90;;;2.53;;
28509;SDS011;15723;55.684;37.928;2023-01-04T09:06:05;3.33;;;2.30;;
28509;SDS011;15723;55.684;37.928;2023-01-04T09:08:34;5.70;;;2.58;;
28509;SDS011;15723;55.684;37.928;2023-01-04T09:11:04;3.75;;;2.42;;
28509;SDS011;15723;55.684;37.928;2023-01-04T09:13:33;4.13;;;2.58;;
28509;SDS011;15723;55.684;37.928;2023-01-04T09:16:19;4.13;;;2.38;;
28509;SDS011;15723;55.684;37.928;2023-01-04T09:18:45;4.95;;;2.75;;
28509;SDS011;15723;55.684;37.928;2023-01-04T09:21:15;5.18;;;2.40;;
28509;SDS011;15723;55.684;37.928;2023-01-04T09:23:44;4.55;;;3.05;;
28509;SDS011;15723;55.684;37.928;2023-01-04T09:26:29;4.97;;;2.75;;
28509;SDS011;15723;55.684;37.928;2023-01-04T09:28:56;7.35;;;3.97;;
28509;SDS011;15723;55.684;37.928;2023-01-04T09:31:23;6.75;;;3.95;;
28509;SDS011;15723;55.684;37.928;2023-01-04T09:34:10;8.75;;;4.47;;
28509;SDS011;15723;55.684;37.928;2023-01-04T09:36:37;5.95;;;3.72;;
28509;SDS011;15723;55.684;37.928;2023-01-04T09:39:04;6.63;;;3.55;;
28509;SDS011;15723;55.684;37.928;2023-01-04T09:47:38;5.82;;;4.05;;
28509;SDS011;15723;55.684;37.928;2023-01-04T09:50:33;7.93;;;4.78;;
28509;SDS011;15723;55.684;37.928;2023-01-04T09:53:42;9.48;;;4.88;;
28509;SDS011;15723;55.684;37.928;2023-01-04T09:56:25;9.27;;;5.25;;
28509;SDS011;15723;55.684;37.928;2023-01-04T09:58:56;9.65;;;5.47;;
28509;SDS011;15723;55.684;37.928;2023-01-04T10:01:26;9.48;;;5.68;;
28509;SDS011;15723;55.684;37.928;2023-01-04T10:04:15;10.65;;;5.63;;
28509;SDS011;15723;55.684;37.928;2023-01-04T10:06:42;10.60;;;5.50;;
28509;SDS011;15723;55.684;37.928;2023-01-04T10:09:10;7.80;;;5.35;;
28509;SDS011;15723;55.684;37.928;2023-01-04T10:22:47;11.05;;;5.63;;
28509;SDS011;15723;55.684;37.928;2023-01-04T10:25:34;9.82;;;6.20;;
28509;SDS011;15723;55.684;37.928;2023-01-04T10:28:17;8.55;;;5.68;;
28509;SDS011;15723;55.684;37.928;2023-01-04T10:31:07;14.15;;;6.50;;
28509;SDS011;15723;55.684;37.928;2023-01-04T10:33:48;13.25;;;6.65;;
28509;SDS011;15723;55.684;37.928;2023-01-04T10:36:26;15.07;;;6.85;;
28509;SDS011;15723;55.684;37.928;2023-01-04T10:38:58;12.77;;;6.72;;
28509;SDS011;15723;55.684;37.928;2023-01-04T10:41:28;8.32;;;5.45;;
28509;SDS011;15723;55.684;37.928;2023-01-04T10:46:43;11.10;;;6.60;;
28509;SDS011;15723;55.684;37.928;2023-01-04T10:49:48;12.82;;;7.45;;
28509;SDS011;15723;55.684;37.928;2023-01-04T10:55:36;11.77;;;7.10;;
28509;SDS011;15723;55.684;37.928;2023-01-04T11:03:47;14.23;;;8.48;;
28509;SDS011;15723;55.684;37.928;2023-01-04T11:08:55;12.65;;;8.48;;
28509;SDS011;15723;55.684;37.928;2023-01-04T11:11:41;16.38;;;8.95;;
28509;SDS011;15723;55.684;37.928;2023-01-04T11:14:09;15.02;;;8.82;;
28509;SDS011;15723;55.684;37.928;2023-01-04T11:16:37;13.45;;;8.15;;
28509;SDS011;15723;55.684;37.928;2023-01-04T11:19:06;18.08;;;8.88;;
28509;SDS011;15723;55.684;37.928;2023-01-04T11:21:38;16.73;;;9.63;;
28509;SDS011;15723;55.684;37.928;2023-01-04T11:24:10;14.65;;;8.68;;
28509;SDS011;15723;55.684;37.928;2023-01-04T11:26:39;17.63;;;10.63;;
28509;SDS011;15723;55.684;37.928;2023-01-04T11:29:16;17.45;;;10.95;;
28509;SDS011;15723;55.684;37.928;2023-01-04T11:31:58;23.25;;;10.85;;
28509;SDS011;15723;55.684;37.928;2023-01-04T11:34:44;16.42;;;10.32;;
28509;SDS011;15723;55.684;37.928;2023-01-04T11:37:32;19.55;;;11.13;;
28509;SDS011;15723;55.684;37.928;2023-01-04T11:42:35;17.30;;;10.43;;
28509;SDS011;15723;55.684;37.928;2023-01-04T11:45:01;13.25;;;8.15;;
28509;SDS011;15723;55.684;37.928;2023-01-04T11:47:28;10.82;;;6.40;;
28509;SDS011;15723;55.684;37.928;2023-01-04T11:49:55;15.45;;;7.20;;
28509;SDS011;15723;55.684;37.928;2023-01-04T11:52:32;9.07;;;5.93;;
28509;SDS011;15723;55.684;37.928;2023-01-04T11:55:18;8.75;;;5.65;;
28509;SDS011;15723;55.684;37.928;2023-01-04T11:58:11;12.73;;;7.63;;
28509;SDS011;15723;55.684;37.928;2023-01-04T12:00:53;9.82;;;6.20;;
28509;SDS011;15723;55.684;37.928;2023-01-04T12:03:39;12.13;;;6.70;;
28509;SDS011;15723;55.684;37.928;2023-01-04T12:09:24;12.80;;;8.27;;
28509;SDS011;15723;55.684;37.928;2023-01-04T12:11:51;13.70;;;7.55;;
28509;SDS011;15723;55.684;37.928;2023-01-04T12:14:25;19.17;;;9.25;;
28509;SDS011;15723;55.684;37.928;2023-01-04T12:17:05;17.77;;;9.95;;
28509;SDS011;15723;55.684;37.928;2023-01-04T12:19:51;17.25;;;8.82;;
28509;SDS011;15723;55.684;37.928;2023-01-04T12:24:46;14.07;;;7.65;;
28509;SDS011;15723;55.684;37.928;2023-01-04T12:27:13;12.98;;;7.53;;
28509;SDS011;15723;55.684;37.928;2023-01-04T12:29:41;12.93;;;8.02;;
28509;SDS011;15723;55.684;37.928;2023-01-04T12:34:37;12.27;;;8.00;;
28509;SDS011;15723;55.684;37.928;2023-01-04T12:37:09;12.25;;;8.45;;
28509;SDS011;15723;55.684;37.928;2023-01-04T12:39:56;12.82;;;7.00;;
28509;SDS011;15723;55.684;37.928;2023-01-04T12:42:22;15.00;;;6.95;;
28509;SDS011;15723;55.684;37.928;2023-01-04T12:50:06;9.77;;;5.35;;
28509;SDS011;15723;55.684;37.928;2023-01-04T12:52:34;9.55;;;5.85;;
28509;SDS011;15723;55.684;37.928;2023-01-04T12:58:00;9.02;;;5.88;;
28509;SDS011;15723;55.684;37.928;2023-01-04T13:05:50;8.80;;;4.95;;
28509;SDS011;15723;55.684;37.928;2023-01-04T13:08:19;14.38;;;7.53;;
28509;SDS011;15723;55.684;37.928;2023-01-04T13:21:47;7.78;;;3.53;;
28509;SDS011;15723;55.684;37.928;2023-01-04T13:26:45;6.43;;;3.83;;
28509;SDS011;15723;55.684;37.928;2023-01-04T13:29:22;4.57;;;3.28;;
28509;SDS011;15723;55.684;37.928;2023-01-04T13:39:32;6.20;;;4.13;;
28509;SDS011;15723;55.684;37.928;2023-01-04T13:41:59;7.30;;;3.50;;
28509;SDS011;15723;55.684;37.928;2023-01-04T13:44:36;5.45;;;3.97;;
28509;SDS011;15723;55.684;37.928;2023-01-04T13:47:08;8.02;;;3.78;;
28509;SDS011;15723;55.684;37.928;2023-01-04T13:49:37;6.03;;;3.70;;
28509;SDS011;15723;55.684;37.928;2023-01-04T13:52:21;8.63;;;3.95;;
28509;SDS011;15723;55.684;37.928;2023-01-04T13:55:37;8.25;;;4.50;;
28509;SDS011;15723;55.684;37.928;2023-01-04T13:58:05;9.48;;;4.40;;
28509;SDS011;15723;55.684;37.928;2023-01-04T14:01:00;8.38;;;4.47;;
28509;SDS011;15723;55.684;37.928;2023-01-04T14:03:48;6.75;;;4.72;;
28509;SDS011;15723;55.684;37.928;2023-01-04T14:06:19;7.35;;;4.60;;
28509;SDS011;15723;55.684;37.928;2023-01-04T14:22:41;4.22;;;2.83;;
28509;SDS011;15723;55.684;37.928;2023-01-04T14:25:41;2.55;;;2.35;;
28509;SDS011;15723;55.684;37.928;2023-01-04T14:31:10;4.65;;;2.53;;
28509;SDS011;15723;55.684;37.928;2023-01-04T14:36:23;4.07;;;2.00;;
28509;SDS011;15723;55.684;37.928;2023-01-04T14:41:33;2.63;;;2.00;;
28509;SDS011;15723;55.684;37.928;2023-01-04T14:44:04;4.15;;;2.42;;
28509;SDS011;15723;55.684;37.928;2023-01-04T14:46:37;4.80;;;2.97;;
28509;SDS011;15723;55.684;37.928;2023-01-04T14:49:04;4.07;;;2.92;;
28509;SDS011;15723;55.684;37.928;2023-01-04T14:51:37;4.20;;;2.70;;
28509;SDS011;15723;55.684;37.928;2023-01-04T14:54:09;5.32;;;2.92;;
28509;SDS011;15723;55.684;37.928;2023-01-04T14:56:37;5.05;;;3.00;;
28509;SDS011;15723;55.684;37.928;2023-01-04T14:59:04;6.57;;;3.08;;
28509;SDS011;15723;55.684;37.928;2023-01-04T15:01:30;7.20;;;3.22;;
28509;SDS011;15723;55.684;37.928;2023-01-04T15:03:58;5.72;;;3.50;;
28509;SDS011;15723;55.684;37.928;2023-01-04T15:06:24;6.10;;;3.60;;
28509;SDS011;15723;55.684;37.928;2023-01-04T15:08:51;5.88;;;3.38;;
28509;SDS011;15723;55.684;37.928;2023-01-04T15:11:17;7.03;;;3.20;;
28509;SDS011;15723;55.684;37.928;2023-01-04T15:13:45;7.00;;;3.65;;
28509;SDS011;15723;55.684;37.928;2023-01-04T15:16:12;6.35;;;3.80;;
28509;SDS011;15723;55.684;37.928;2023-01-04T15:18:59;8.05;;;3.83;;
28509;SDS011;15723;55.684;37.928;2023-01-04T15:21:25;8.63;;;4.10;;
28509;SDS011;15723;55.684;37.928;2023-01-04T15:23:51;6.32;;;4.07;;
28509;SDS011;15723;55.684;37.928;2023-01-04T15:26:17;9.50;;;4.28;;
28509;SDS011;15723;55.684;37.928;2023-01-04T15:28:44;8.27;;;4.57;;
28509;SDS011;15723;55.684;37.928;2023-01-04T15:31:11;8.32;;;4.25;;
28509;SDS011;15723;55.684;37.928;2023-01-04T15:33:38;8.38;;;4.55;;
28509;SDS011;15723;55.684;37.928;2023-01-04T15:36:06;9.13;;;4.88;;
28509;SDS011;15723;55.684;37.928;2023-01-04T15:38:35;9.20;;;4.72;;
28509;SDS011;15723;55.684;37.928;2023-01-04T15:41:20;10.20;;;4.97;;
28509;SDS011;15723;55.684;37.928;2023-01-04T15:44:07;10.98;;;4.55;;
28509;SDS011;15723;55.684;37.928;2023-01-04T15:46:34;8.10;;;5.28;;
28509;SDS011;15723;55.684;37.928;2023-01-04T15:49:00;12.00;;;4.60;;
28509;SDS011;15723;55.684;37.928;2023-01-04T15:51:26;9.18;;;5.05;;
28509;SDS011;15723;55.684;37.928;2023-01-04T15:53:53;13.07;;;5.65;;
28509;SDS011;15723;55.684;37.928;2023-01-04T15:56:19;9.02;;;5.15;;
28509;SDS011;15723;55.684;37.928;2023-01-04T15:58:45;12.25;;;5.82;;
28509;SDS011;15723;55.684;37.928;2023-01-04T16:01:13;12.05;;;5.97;;
28509;SDS011;15723;55.684;37.928;2023-01-04T16:03:40;12.27;;;5.07;;
28509;SDS011;15723;55.684;37.928;2023-01-04T16:06:08;10.25;;;5.57;;
28509;SDS011;15723;55.684;37.928;2023-01-04T16:08:39;10.85;;;5.65;;
28509;SDS011;15723;55.684;37.928;2023-01-04T16:11:08;10.25;;;6.13;;
28509;SDS011;15723;55.684;37.928;2023-01-04T16:13:38;9.18;;;5.53;;
28509;SDS011;15723;55.684;37.928;2023-01-04T16:16:05;11.52;;;5.97;;
28509;SDS011;15723;55.684;37.928;2023-01-04T16:18:51;14.52;;;6.20;;
28509;SDS011;15723;55.684;37.928;2023-01-04T16:21:19;10.98;;;5.75;;
28509;SDS011;15723;55.684;37.928;2023-01-04T16:23:54;12.87;;;5.53;;
28509;SDS011;15723;55.684;37.928;2023-01-04T16:26:22;10.55;;;5.55;;
28509;SDS011;15723;55.684;37.928;2023-01-04T16:28:52;14.85;;;5.85;;
28509;SDS011;15723;55.684;37.928;2023-01-04T16:31:20;13.48;;;5.43;;
28509;SDS011;15723;55.684;37.928;2023-01-04T16:33:51;11.60;;;5.50;;
28509;SDS011;15723;55.684;37.928;2023-01-04T16:36:19;11.00;;;5.53;;
28509;SDS011;15723;55.684;37.928;2023-01-04T16:38:45;10.55;;;5.43;;
28509;SDS011;15723;55.684;37.928;2023-01-04T16:41:14;15.68;;;6.50;;
28509;SDS011;15723;55.684;37.928;2023-01-04T16:43:42;14.35;;;6.88;;
28509;SDS011;15723;55.684;37.928;2023-01-04T16:46:16;12.85;;;6.85;;
28509;SDS011;15723;55.684;37.928;2023-01-04T16:48:44;10.10;;;5.68;;
28509;SDS011;15723;55.684;37.928;2023-01-04T16:51:25;13.90;;;6.53;;
28509;SDS011;15723;55.684;37.928;2023-01-04T16:54:11;17.52;;;6.53;;
28509;SDS011;15723;55.684;37.928;2023-01-04T16:56:39;14.70;;;7.10;;
28509;SDS011;15723;55.684;37.928;2023-01-04T16:59:11;15.70;;;7.82;;
28509;SDS011;15723;55.684;37.928;2023-01-04T17:01:40;16.83;;;8.40;;
28509;SDS011;15723;55.684;37.928;2023-01-04T17:04:07;14.68;;;8.45;;
28509;SDS011;15723;55.684;37.928;2023-01-04T17:06:52;15.25;;;7.45;;
28509;SDS011;15723;55.684;37.928;2023-01-04T17:09:21;17.90;;;7.88;;
28509;SDS011;15723;55.684;37.928;2023-01-04T17:11:48;14.15;;;7.22;;
28509;SDS011;15723;55.684;37.928;2023-01-04T17:14:29;13.93;;;7.63;;
28509;SDS011;15723;55.684;37.928;2023-01-04T17:17:13;16.73;;;7.32;;
28509;SDS011;15723;55.684;37.928;2023-01-04T17:19:41;18.63;;;8.82;;
28509;SDS011;15723;55.684;37.928;2023-01-04T17:22:08;17.63;;;8.10;;
28509;SDS011;15723;55.684;37.928;2023-01-04T17:24:34;13.65;;;7.57;;
28509;SDS011;15723;55.684;37.928;2023-01-04T17:27:01;14.23;;;7.15;;